sensor_id;sensor_type;location;lat;lon;timestamp;P1;durP1;ratioP1;P2;durP2;ratioP2
41761;SDS011;27441;50.860;0.258;2023-02-28T00:00:02;0.10;;;0.10;;
41761;SDS011;27441;50.860;0.258;2023-02-28T00:02:34;0.10;;;0.10;;
41761;SDS011;27441;50.860;0.258;2023-02-28T00:05:00;0.10;;;0.10;;
41761;SDS011;27441;50.860;0.258;2023-02-28T00:07:28;0.10;;;0.10;;
41761;SDS011;27441;50.860;0.258;2023-02-28T00:09:54;0.10;;;0.10;;
41761;SDS011;27441;50.860;0.258;2023-02-28T00:12:20;0.10;;;0.10;;
41761;SDS011;27441;50.860;0.258;2023-02-28T00:14:47;0.00;;;0.00;;
41761;SDS011;27441;50.860;0.258;2023-02-28T00:17:13;0.10;;;0.10;;
41761;SDS011;27441;50.860;0.258;2023-02-28T00:19:39;0.10;;;0.10;;
41761;SDS011;27441;50.860;0.258;2023-02-28T00:22:05;0.08;;;0.08;;
41761;SDS011;27441;50.860;0.258;2023-02-28T00:24:31;0.10;;;0.10;;
41761;SDS011;27441;50.860;0.258;2023-02-28T00:26:57;0.10;;;0.10;;
41761;SDS011;27441;50.860;0.258;2023-02-28T00:29:23;0.10;;;0.10;;
41761;SDS011;27441;50.860;0.258;2023-02-28T00:31:49;0.10;;;0.10;;
41761;SDS011;27441;50.860;0.258;2023-02-28T00:34:16;0.00;;;0.00;;
41761;SDS011;27441;50.860;0.258;2023-02-28T00:36:42;0.00;;;0.00;;
41761;SDS011;27441;50.860;0.258;2023-02-28T00:39:10;0.10;;;0.10;;
41761;SDS011;27441;50.860;0.258;2023-02-28T00:41:37;0.00;;;0.00;;
41761;SDS011;27441;50.860;0.258;2023-02-28T00:44:03;0.10;;;0.10;;
41761;SDS011;27441;50.860;0.258;2023-02-28T00:46:29;0.10;;;0.10;;
41761;SDS011;27441;50.860;0.258;2023-02-28T00:48:55;0.00;;;0.00;;
41761;SDS011;27441;50.860;0.258;2023-02-28T00:51:21;0.08;;;0.08;;
41761;SDS011;27441;50.860;0.258;2023-02-28T00:53:47;0.10;;;0.10;;
41761;SDS011;27441;50.860;0.258;2023-02-28T00:56:13;0.00;;;0.00;;
41761;SDS011;27441;50.860;0.258;2023-02-28T00:58:39;0.10;;;0.10;;
41761;SDS011;27441;50.860;0.258;2023-02-28T01:01:05;0.10;;;0.10;;
41761;SDS011;27441;50.860;0.258;2023-02-28T01:03:31;0.00;;;0.00;;
41761;SDS011;27441;50.860;0.258;2023-02-28T01:05:58;0.10;;;0.10;;
41761;SDS011;27441;50.860;0.258;2023-02-28T01:08:24;0.10;;;0.10;;
41761;SDS011;27441;50.860;0.258;2023-02-28T01:10:51;0.10;;;0.10;;
41761;SDS011;27441;50.860;0.258;2023-02-28T01:13:17;0.10;;;0.10;;
41761;SDS011;27441;50.860;0.258;2023-02-28T01:15:46;0.00;;;0.00;;
41761;SDS011;27441;50.860;0.258;2023-02-28T01:18:15;0.10;;;0.10;;
41761;SDS011;27441;50.860;0.258;2023-02-28T01:20:41;0.10;;;0.10;;
41761;SDS011;27441;50.860;0.258;2023-02-28T01:23:07;0.10;;;0.10;;
41761;SDS011;27441;50.860;0.258;2023-02-28T01:25:36;0.10;;;0.10;;
41761;SDS011;27441;50.860;0.258;2023-02-28T01:28:02;0.00;;;0.00;;
41761;SDS011;27441;50.860;0.258;2023-02-28T01:30:28;0.10;;;0.10;;
41761;SDS011;27441;50.860;0.258;2023-02-28T01:32:54;0.10;;;0.10;;
41761;SDS011;27441;50.860;0.258;2023-02-28T01:35:21;0.10;;;0.10;;
41761;SDS011;27441;50.860;0.258;2023-02-28T01:37:47;0.00;;;0.00;;
41761;SDS011;27441;50.860;0.258;2023-02-28T01:40:13;0.10;;;0.10;;
41761;SDS011;27441;50.860;0.258;2023-02-28T01:42:39;0.10;;;0.10;;
41761;SDS011;27441;50.860;0.258;2023-02-28T01:47:34;0.10;;;0.10;;
41761;SDS011;27441;50.860;0.258;2023-02-28T01:50:01;0.10;;;0.10;;
41761;SDS011;27441;50.860;0.258;2023-02-28T01:52:27;0.10;;;0.10;;
41761;SDS011;27441;50.860;0.258;2023-02-28T01:54:55;0.10;;;0.10;;
41761;SDS011;27441;50.860;0.258;2023-02-28T01:57:24;0.10;;;0.10;;
41761;SDS011;27441;50.860;0.258;2023-02-28T01:59:53;0.10;;;0.10;;
41761;SDS011;27441;50.860;0.258;2023-02-28T02:02:20;0.10;;;0.10;;
41761;SDS011;27441;50.860;0.258;2023-02-28T02:04:57;0.00;;;0.00;;
41761;SDS011;27441;50.860;0.258;2023-02-28T02:07:26;0.10;;;0.10;;
41761;SDS011;27441;50.860;0.258;2023-02-28T02:10:03;0.10;;;0.10;;
41761;SDS011;27441;50.860;0.258;2023-02-28T02:12:35;0.10;;;0.10;;
41761;SDS011;27441;50.860;0.258;2023-02-28T02:17:38;0.10;;;0.10;;
41761;SDS011;27441;50.860;0.258;2023-02-28T02:22:43;0.10;;;0.10;;
41761;SDS011;27441;50.860;0.258;2023-02-28T02:28:16;0.10;;;0.10;;
41761;SDS011;27441;50.860;0.258;2023-02-28T02:30:51;0.10;;;0.10;;
41761;SDS011;27441;50.860;0.258;2023-02-28T02:35:56;0.10;;;0.10;;
41761;SDS011;27441;50.860;0.258;2023-02-28T02:40:58;0.10;;;0.10;;
41761;SDS011;27441;50.860;0.258;2023-02-28T02:43:30;0.10;;;0.10;;
41761;SDS011;27441;50.860;0.258;2023-02-28T02:48:47;0.10;;;0.10;;
41761;SDS011;27441;50.860;0.258;2023-02-28T02:51:14;0.10;;;0.10;;
41761;SDS011;27441;50.860;0.258;2023-02-28T02:53:42;0.00;;;0.00;;
41761;SDS011;27441;50.860;0.258;2023-02-28T02:56:10;0.10;;;0.10;;
41761;SDS011;27441;50.860;0.258;2023-02-28T02:58:39;0.05;;;0.05;;
41761;SDS011;27441;50.860;0.258;2023-02-28T03:01:07;0.10;;;0.10;;
41761;SDS011;27441;50.860;0.258;2023-02-28T03:03:34;0.10;;;0.10;;
41761;SDS011;27441;50.860;0.258;2023-02-28T03:06:01;0.10;;;0.10;;
41761;SDS011;27441;50.860;0.258;2023-02-28T03:08:28;0.10;;;0.10;;
41761;SDS011;27441;50.860;0.258;2023-02-28T03:10:56;0.00;;;0.00;;
41761;SDS011;27441;50.860;0.258;2023-02-28T03:15:56;0.10;;;0.10;;
41761;SDS011;27441;50.860;0.258;2023-02-28T03:18:30;0.08;;;0.08;;
41761;SDS011;27441;50.860;0.258;2023-02-28T03:23:53;0.10;;;0.10;;
41761;SDS011;27441;50.860;0.258;2023-02-28T03:26:16;0.10;;;0.10;;
41761;SDS011;27441;50.860;0.258;2023-02-28T03:31:30;0.10;;;0.10;;
41761;SDS011;27441;50.860;0.258;2023-02-28T03:34:39;0.10;;;0.10;;
41761;SDS011;27441;50.860;0.258;2023-02-28T03:36:47;0.10;;;0.10;;
41761;SDS011;27441;50.860;0.258;2023-02-28T03:39:19;0.10;;;0.10;;
41761;SDS011;27441;50.860;0.258;2023-02-28T03:41:47;0.10;;;0.10;;
41761;SDS011;27441;50.860;0.258;2023-02-28T03:47:00;0.10;;;0.10;;
41761;SDS011;27441;50.860;0.258;2023-02-28T03:52:17;0.10;;;0.10;;
41761;SDS011;27441;50.860;0.258;2023-02-28T03:54:47;0.10;;;0.10;;
41761;SDS011;27441;50.860;0.258;2023-02-28T03:57:18;0.10;;;0.10;;
41761;SDS011;27441;50.860;0.258;2023-02-28T03:59:49;0.10;;;0.10;;
41761;SDS011;27441;50.860;0.258;2023-02-28T04:02:20;0.10;;;0.10;;
41761;SDS011;27441;50.860;0.258;2023-02-28T04:04:46;0.10;;;0.10;;
41761;SDS011;27441;50.860;0.258;2023-02-28T04:07:13;0.10;;;0.10;;
41761;SDS011;27441;50.860;0.258;2023-02-28T04:09:40;0.10;;;0.10;;
41761;SDS011;27441;50.860;0.258;2023-02-28T04:12:06;0.10;;;0.10;;
41761;SDS011;27441;50.860;0.258;2023-02-28T04:14:32;0.10;;;0.10;;
41761;SDS011;27441;50.860;0.258;2023-02-28T04:16:58;0.10;;;0.10;;
41761;SDS011;27441;50.860;0.258;2023-02-28T04:19:24;0.20;;;0.20;;
41761;SDS011;27441;50.860;0.258;2023-02-28T04:21:51;0.10;;;0.10;;
41761;SDS011;27441;50.860;0.258;2023-02-28T04:24:18;0.10;;;0.10;;
41761;SDS011;27441;50.860;0.258;2023-02-28T04:26:45;0.10;;;0.10;;
41761;SDS011;27441;50.860;0.258;2023-02-28T04:29:12;0.10;;;0.10;;
41761;SDS011;27441;50.860;0.258;2023-02-28T04:31:39;0.10;;;0.10;;
41761;SDS011;27441;50.860;0.258;2023-02-28T04:34:05;0.10;;;0.10;;
41761;SDS011;27441;50.860;0.258;2023-02-28T04:36:31;0.10;;;0.10;;
41761;SDS011;27441;50.860;0.258;2023-02-28T04:38:58;0.10;;;0.10;;
41761;SDS011;27441;50.860;0.258;2023-02-28T04:41:24;0.10;;;0.10;;
41761;SDS011;27441;50.860;0.258;2023-02-28T04:43:51;0.10;;;0.10;;
41761;SDS011;27441;50.860;0.258;2023-02-28T04:46:17;0.10;;;0.10;;
41761;SDS011;27441;50.860;0.258;2023-02-28T04:48:43;0.20;;;0.20;;
41761;SDS011;27441;50.860;0.258;2023-02-28T04:51:11;0.10;;;0.10;;
41761;SDS011;27441;50.860;0.258;2023-02-28T04:53:38;0.10;;;0.10;;
41761;SDS011;27441;50.860;0.258;2023-02-28T04:56:05;0.10;;;0.10;;
41761;SDS011;27441;50.860;0.258;2023-02-28T04:58:32;0.10;;;0.10;;
41761;SDS011;27441;50.860;0.258;2023-02-28T05:01:05;0.20;;;0.20;;
41761;SDS011;27441;50.860;0.258;2023-02-28T05:03:40;0.10;;;0.10;;
41761;SDS011;27441;50.860;0.258;2023-02-28T05:06:07;0.20;;;0.20;;
41761;SDS011;27441;50.860;0.258;2023-02-28T05:08:33;0.10;;;0.10;;
41761;SDS011;27441;50.860;0.258;2023-02-28T05:10:59;0.20;;;0.20;;
41761;SDS011;27441;50.860;0.258;2023-02-28T05:13:26;0.20;;;0.20;;
41761;SDS011;27441;50.860;0.258;2023-02-28T05:15:52;0.20;;;0.20;;
41761;SDS011;27441;50.860;0.258;2023-02-28T05:18:18;0.20;;;0.20;;
41761;SDS011;27441;50.860;0.258;2023-02-28T05:20:45;0.10;;;0.10;;
41761;SDS011;27441;50.860;0.258;2023-02-28T05:23:11;0.20;;;0.20;;
41761;SDS011;27441;50.860;0.258;2023-02-28T05:25:38;0.17;;;0.17;;
41761;SDS011;27441;50.860;0.258;2023-02-28T05:28:05;0.20;;;0.20;;
41761;SDS011;27441;50.860;0.258;2023-02-28T05:30:31;0.20;;;0.20;;
41761;SDS011;27441;50.860;0.258;2023-02-28T05:32:57;0.10;;;0.10;;
41761;SDS011;27441;50.860;0.258;2023-02-28T05:35:24;0.20;;;0.20;;
41761;SDS011;27441;50.860;0.258;2023-02-28T05:37:50;0.10;;;0.10;;
41761;SDS011;27441;50.860;0.258;2023-02-28T05:40:16;0.20;;;0.20;;
41761;SDS011;27441;50.860;0.258;2023-02-28T05:42:44;0.20;;;0.20;;
41761;SDS011;27441;50.860;0.258;2023-02-28T05:45:10;0.10;;;0.10;;
41761;SDS011;27441;50.860;0.258;2023-02-28T05:47:36;0.20;;;0.20;;
41761;SDS011;27441;50.860;0.258;2023-02-28T05:50:03;0.10;;;0.10;;
41761;SDS011;27441;50.860;0.258;2023-02-28T05:52:29;0.10;;;0.10;;
41761;SDS011;27441;50.860;0.258;2023-02-28T05:54:56;0.20;;;0.20;;
41761;SDS011;27441;50.860;0.258;2023-02-28T05:57:22;0.10;;;0.10;;
41761;SDS011;27441;50.860;0.258;2023-02-28T05:59:48;0.20;;;0.20;;
41761;SDS011;27441;50.860;0.258;2023-02-28T06:02:15;0.10;;;0.10;;
41761;SDS011;27441;50.860;0.258;2023-02-28T06:04:42;0.20;;;0.20;;
41761;SDS011;27441;50.860;0.258;2023-02-28T06:07:09;0.10;;;0.10;;
41761;SDS011;27441;50.860;0.258;2023-02-28T06:09:35;0.10;;;0.10;;
41761;SDS011;27441;50.860;0.258;2023-02-28T06:12:03;0.20;;;0.20;;
41761;SDS011;27441;50.860;0.258;2023-02-28T06:14:31;0.10;;;0.10;;
41761;SDS011;27441;50.860;0.258;2023-02-28T06:16:58;0.20;;;0.20;;
41761;SDS011;27441;50.860;0.258;2023-02-28T06:19:24;0.20;;;0.20;;
41761;SDS011;27441;50.860;0.258;2023-02-28T06:21:51;0.10;;;0.10;;
41761;SDS011;27441;50.860;0.258;2023-02-28T06:24:21;0.20;;;0.20;;
41761;SDS011;27441;50.860;0.258;2023-02-28T06:26:47;0.10;;;0.10;;
41761;SDS011;27441;50.860;0.258;2023-02-28T06:29:14;0.10;;;0.10;;
41761;SDS011;27441;50.860;0.258;2023-02-28T06:31:46;0.20;;;0.20;;
41761;SDS011;27441;50.860;0.258;2023-02-28T06:34:13;0.10;;;0.10;;
41761;SDS011;27441;50.860;0.258;2023-02-28T06:36:40;0.20;;;0.20;;
41761;SDS011;27441;50.860;0.258;2023-02-28T06:39:07;0.10;;;0.10;;
41761;SDS011;27441;50.860;0.258;2023-02-28T06:41:33;0.20;;;0.20;;
41761;SDS011;27441;50.860;0.258;2023-02-28T06:44:08;0.20;;;0.20;;
41761;SDS011;27441;50.860;0.258;2023-02-28T06:46:38;0.10;;;0.10;;
41761;SDS011;27441;50.860;0.258;2023-02-28T06:49:04;0.20;;;0.20;;
41761;SDS011;27441;50.860;0.258;2023-02-28T06:51:30;0.10;;;0.10;;
41761;SDS011;27441;50.860;0.258;2023-02-28T06:53:56;0.10;;;0.10;;
41761;SDS011;27441;50.860;0.258;2023-02-28T06:56:22;0.20;;;0.20;;
41761;SDS011;27441;50.860;0.258;2023-02-28T06:58:49;0.20;;;0.20;;
41761;SDS011;27441;50.860;0.258;2023-02-28T07:01:15;0.20;;;0.20;;
41761;SDS011;27441;50.860;0.258;2023-02-28T07:03:42;0.17;;;0.17;;
41761;SDS011;27441;50.860;0.258;2023-02-28T07:06:08;0.20;;;0.20;;
41761;SDS011;27441;50.860;0.258;2023-02-28T07:08:34;0.20;;;0.20;;
41761;SDS011;27441;50.860;0.258;2023-02-28T07:11:01;0.20;;;0.20;;
41761;SDS011;27441;50.860;0.258;2023-02-28T07:13:27;0.20;;;0.20;;
41761;SDS011;27441;50.860;0.258;2023-02-28T07:15:57;0.10;;;0.10;;
41761;SDS011;27441;50.860;0.258;2023-02-28T07:18:23;0.20;;;0.20;;
41761;SDS011;27441;50.860;0.258;2023-02-28T07:20:50;0.20;;;0.20;;
41761;SDS011;27441;50.860;0.258;2023-02-28T07:23:16;0.20;;;0.20;;
41761;SDS011;27441;50.860;0.258;2023-02-28T07:25:42;0.20;;;0.20;;
41761;SDS011;27441;50.860;0.258;2023-02-28T07:28:09;0.20;;;0.20;;
41761;SDS011;27441;50.860;0.258;2023-02-28T07:30:35;0.20;;;0.20;;
41761;SDS011;27441;50.860;0.258;2023-02-28T07:33:01;0.20;;;0.20;;
41761;SDS011;27441;50.860;0.258;2023-02-28T07:35:27;0.20;;;0.20;;
41761;SDS011;27441;50.860;0.258;2023-02-28T07:37:53;0.20;;;0.20;;
41761;SDS011;27441;50.860;0.258;2023-02-28T07:40:19;0.17;;;0.17;;
41761;SDS011;27441;50.860;0.258;2023-02-28T07:42:45;0.20;;;0.20;;
41761;SDS011;27441;50.860;0.258;2023-02-28T07:45:11;0.20;;;0.20;;
41761;SDS011;27441;50.860;0.258;2023-02-28T07:47:41;0.20;;;0.20;;
41761;SDS011;27441;50.860;0.258;2023-02-28T07:50:08;0.20;;;0.20;;
41761;SDS011;27441;50.860;0.258;2023-02-28T07:52:35;0.20;;;0.20;;
41761;SDS011;27441;50.860;0.258;2023-02-28T07:55:02;0.23;;;0.23;;
41761;SDS011;27441;50.860;0.258;2023-02-28T07:57:28;0.20;;;0.20;;
41761;SDS011;27441;50.860;0.258;2023-02-28T07:59:54;0.20;;;0.20;;
41761;SDS011;27441;50.860;0.258;2023-02-28T08:02:20;0.20;;;0.20;;
41761;SDS011;27441;50.860;0.258;2023-02-28T08:04:46;0.20;;;0.20;;
41761;SDS011;27441;50.860;0.258;2023-02-28T08:07:13;0.28;;;0.28;;
41761;SDS011;27441;50.860;0.258;2023-02-28T08:09:39;0.20;;;0.20;;
41761;SDS011;27441;50.860;0.258;2023-02-28T08:12:06;0.20;;;0.20;;
41761;SDS011;27441;50.860;0.258;2023-02-28T08:14:33;0.20;;;0.20;;
41761;SDS011;27441;50.860;0.258;2023-02-28T08:16:59;0.20;;;0.20;;
41761;SDS011;27441;50.860;0.258;2023-02-28T08:19:25;0.20;;;0.20;;
41761;SDS011;27441;50.860;0.258;2023-02-28T08:21:52;0.20;;;0.20;;
41761;SDS011;27441;50.860;0.258;2023-02-28T08:24:18;0.20;;;0.20;;
41761;SDS011;27441;50.860;0.258;2023-02-28T08:26:44;0.20;;;0.20;;
41761;SDS011;27441;50.860;0.258;2023-02-28T08:29:10;0.20;;;0.20;;
41761;SDS011;27441;50.860;0.258;2023-02-28T08:31:36;0.30;;;0.30;;
41761;SDS011;27441;50.860;0.258;2023-02-28T08:34:10;0.20;;;0.20;;
41761;SDS011;27441;50.860;0.258;2023-02-28T08:36:37;0.20;;;0.20;;
41761;SDS011;27441;50.860;0.258;2023-02-28T08:39:03;0.20;;;0.20;;
41761;SDS011;27441;50.860;0.258;2023-02-28T08:41:30;0.20;;;0.20;;
41761;SDS011;27441;50.860;0.258;2023-02-28T08:43:56;0.20;;;0.20;;
41761;SDS011;27441;50.860;0.258;2023-02-28T08:46:22;0.30;;;0.30;;
41761;SDS011;27441;50.860;0.258;2023-02-28T08:48:51;0.20;;;0.20;;
41761;SDS011;27441;50.860;0.258;2023-02-28T08:51:18;0.20;;;0.20;;
41761;SDS011;27441;50.860;0.258;2023-02-28T08:53:51;0.20;;;0.20;;
41761;SDS011;27441;50.860;0.258;2023-02-28T08:56:17;0.20;;;0.20;;
41761;SDS011;27441;50.860;0.258;2023-02-28T08:58:43;0.20;;;0.20;;
41761;SDS011;27441;50.860;0.258;2023-02-28T09:01:10;0.17;;;0.17;;
41761;SDS011;27441;50.860;0.258;2023-02-28T09:03:37;0.20;;;0.20;;
41761;SDS011;27441;50.860;0.258;2023-02-28T09:06:03;0.20;;;0.20;;
41761;SDS011;27441;50.860;0.258;2023-02-28T09:08:30;0.20;;;0.20;;
41761;SDS011;27441;50.860;0.258;2023-02-28T09:10:56;0.20;;;0.20;;
41761;SDS011;27441;50.860;0.258;2023-02-28T09:13:23;0.20;;;0.20;;
41761;SDS011;27441;50.860;0.258;2023-02-28T09:15:49;0.20;;;0.20;;
41761;SDS011;27441;50.860;0.258;2023-02-28T09:18:15;0.30;;;0.30;;
41761;SDS011;27441;50.860;0.258;2023-02-28T09:20:42;0.20;;;0.20;;
41761;SDS011;27441;50.860;0.258;2023-02-28T09:23:09;0.20;;;0.20;;
41761;SDS011;27441;50.860;0.258;2023-02-28T09:25:35;0.20;;;0.20;;
41761;SDS011;27441;50.860;0.258;2023-02-28T09:28:02;0.20;;;0.20;;
41761;SDS011;27441;50.860;0.258;2023-02-28T09:30:29;0.20;;;0.20;;
41761;SDS011;27441;50.860;0.258;2023-02-28T09:32:55;0.20;;;0.20;;
41761;SDS011;27441;50.860;0.258;2023-02-28T09:35:22;0.20;;;0.20;;
41761;SDS011;27441;50.860;0.258;2023-02-28T09:37:49;0.20;;;0.20;;
41761;SDS011;27441;50.860;0.258;2023-02-28T09:40:16;0.17;;;0.17;;
41761;SDS011;27441;50.860;0.258;2023-02-28T09:42:44;0.20;;;0.20;;
41761;SDS011;27441;50.860;0.258;2023-02-28T09:45:16;0.20;;;0.20;;
41761;SDS011;27441;50.860;0.258;2023-02-28T09:47:44;0.10;;;0.10;;
41761;SDS011;27441;50.860;0.258;2023-02-28T09:50:20;0.20;;;0.20;;
41761;SDS011;27441;50.860;0.258;2023-02-28T09:52:48;0.20;;;0.20;;
41761;SDS011;27441;50.860;0.258;2023-02-28T09:58:02;0.10;;;0.10;;
41761;SDS011;27441;50.860;0.258;2023-02-28T10:00:36;0.10;;;0.10;;
41761;SDS011;27441;50.860;0.258;2023-02-28T10:05:51;0.10;;;0.10;;
41761;SDS011;27441;50.860;0.258;2023-02-28T10:08:29;0.10;;;0.10;;
41761;SDS011;27441;50.860;0.258;2023-02-28T10:11:02;0.10;;;0.10;;
41761;SDS011;27441;50.860;0.258;2023-02-28T10:15:58;0.10;;;0.10;;
41761;SDS011;27441;50.860;0.258;2023-02-28T10:18:25;0.10;;;0.10;;
41761;SDS011;27441;50.860;0.258;2023-02-28T10:20:53;0.10;;;0.10;;
41761;SDS011;27441;50.860;0.258;2023-02-28T10:23:28;0.10;;;0.10;;
41761;SDS011;27441;50.860;0.258;2023-02-28T10:26:05;0.10;;;0.10;;
41761;SDS011;27441;50.860;0.258;2023-02-28T10:28:35;0.10;;;0.10;;
41761;SDS011;27441;50.860;0.258;2023-02-28T10:31:01;0.10;;;0.10;;
41761;SDS011;27441;50.860;0.258;2023-02-28T10:33:29;0.10;;;0.10;;
41761;SDS011;27441;50.860;0.258;2023-02-28T10:35:56;0.10;;;0.10;;
41761;SDS011;27441;50.860;0.258;2023-02-28T10:38:23;0.10;;;0.10;;
41761;SDS011;27441;50.860;0.258;2023-02-28T10:40:50;0.00;;;0.00;;
41761;SDS011;27441;50.860;0.258;2023-02-28T10:43:18;0.10;;;0.10;;
41761;SDS011;27441;50.860;0.258;2023-02-28T10:45:55;0.10;;;0.10;;
41761;SDS011;27441;50.860;0.258;2023-02-28T10:55:57;0.00;;;0.00;;
41761;SDS011;27441;50.860;0.258;2023-02-28T10:58:24;0.00;;;0.00;;
41761;SDS011;27441;50.860;0.258;2023-02-28T11:00:51;0.10;;;0.10;;
41761;SDS011;27441;50.860;0.258;2023-02-28T11:05:56;0.10;;;0.10;;
41761;SDS011;27441;50.860;0.258;2023-02-28T11:08:22;0.10;;;0.10;;
41761;SDS011;27441;50.860;0.258;2023-02-28T11:10:56;0.00;;;0.00;;
41761;SDS011;27441;50.860;0.258;2023-02-28T11:13:27;0.00;;;0.00;;
41761;SDS011;27441;50.860;0.258;2023-02-28T11:15:58;0.10;;;0.10;;
41761;SDS011;27441;50.860;0.258;2023-02-28T11:20:52;0.00;;;0.00;;
41761;SDS011;27441;50.860;0.258;2023-02-28T11:23:19;0.00;;;0.00;;
41761;SDS011;27441;50.860;0.258;2023-02-28T11:25:47;0.00;;;0.00;;
41761;SDS011;27441;50.860;0.258;2023-02-28T11:28:31;0.00;;;0.00;;
41761;SDS011;27441;50.860;0.258;2023-02-28T11:31:05;0.00;;;0.00;;
41761;SDS011;27441;50.860;0.258;2023-02-28T11:33:32;0.05;;;0.05;;
41761;SDS011;27441;50.860;0.258;2023-02-28T11:36:28;0.00;;;0.00;;
41761;SDS011;27441;50.860;0.258;2023-02-28T11:38:53;0.10;;;0.10;;
41761;SDS011;27441;50.860;0.258;2023-02-28T11:41:27;0.00;;;0.00;;
41761;SDS011;27441;50.860;0.258;2023-02-28T11:46:40;0.00;;;0.00;;
41761;SDS011;27441;50.860;0.258;2023-02-28T11:49:17;0.00;;;0.00;;
41761;SDS011;27441;50.860;0.258;2023-02-28T11:51:48;0.10;;;0.10;;
41761;SDS011;27441;50.860;0.258;2023-02-28T11:54:28;0.10;;;0.10;;
41761;SDS011;27441;50.860;0.258;2023-02-28T11:57:00;0.00;;;0.00;;
41761;SDS011;27441;50.860;0.258;2023-02-28T12:02:04;0.00;;;0.00;;
41761;SDS011;27441;50.860;0.258;2023-02-28T12:07:07;0.00;;;0.00;;
41761;SDS011;27441;50.860;0.258;2023-02-28T12:12:20;0.00;;;0.00;;
41761;SDS011;27441;50.860;0.258;2023-02-28T12:28:07;0.00;;;0.00;;
41761;SDS011;27441;50.860;0.258;2023-02-28T12:30:35;0.00;;;0.00;;
41761;SDS011;27441;50.860;0.258;2023-02-28T12:33:07;0.00;;;0.00;;
41761;SDS011;27441;50.860;0.258;2023-02-28T12:35:38;0.10;;;0.10;;
41761;SDS011;27441;50.860;0.258;2023-02-28T12:38:17;0.00;;;0.00;;
41761;SDS011;27441;50.860;0.258;2023-02-28T12:40:47;0.10;;;0.10;;
41761;SDS011;27441;50.860;0.258;2023-02-28T12:43:16;0.00;;;0.00;;
41761;SDS011;27441;50.860;0.258;2023-02-28T12:45:46;0.00;;;0.00;;
41761;SDS011;27441;50.860;0.258;2023-02-28T12:48:15;0.10;;;0.10;;
41761;SDS011;27441;50.860;0.258;2023-02-28T12:50:44;0.00;;;0.00;;
41761;SDS011;27441;50.860;0.258;2023-02-28T12:53:14;0.00;;;0.00;;
41761;SDS011;27441;50.860;0.258;2023-02-28T12:58:30;0.10;;;0.10;;
41761;SDS011;27441;50.860;0.258;2023-02-28T13:01:13;0.00;;;0.00;;
41761;SDS011;27441;50.860;0.258;2023-02-28T13:03:59;0.00;;;0.00;;
41761;SDS011;27441;50.860;0.258;2023-02-28T13:09:14;0.10;;;0.10;;
41761;SDS011;27441;50.860;0.258;2023-02-28T13:14:20;0.00;;;0.00;;
41761;SDS011;27441;50.860;0.258;2023-02-28T13:16:50;0.00;;;0.00;;
41761;SDS011;27441;50.860;0.258;2023-02-28T13:19:17;0.10;;;0.10;;
41761;SDS011;27441;50.860;0.258;2023-02-28T13:21:44;0.00;;;0.00;;
41761;SDS011;27441;50.860;0.258;2023-02-28T13:24:11;0.00;;;0.00;;
41761;SDS011;27441;50.860;0.258;2023-02-28T13:29:30;0.10;;;0.10;;
41761;SDS011;27441;50.860;0.258;2023-02-28T13:34:34;0.00;;;0.00;;
41761;SDS011;27441;50.860;0.258;2023-02-28T13:39:47;0.10;;;0.10;;
41761;SDS011;27441;50.860;0.258;2023-02-28T13:42:55;0.00;;;0.00;;
41761;SDS011;27441;50.860;0.258;2023-02-28T13:47:29;0.00;;;0.00;;
41761;SDS011;27441;50.860;0.258;2023-02-28T14:05:25;0.00;;;0.00;;
41761;SDS011;27441;50.860;0.258;2023-02-28T14:07:56;0.00;;;0.00;;
41761;SDS011;27441;50.860;0.258;2023-02-28T14:13:02;0.00;;;0.00;;
41761;SDS011;27441;50.860;0.258;2023-02-28T14:18:18;0.10;;;0.10;;
41761;SDS011;27441;50.860;0.258;2023-02-28T14:20:47;0.00;;;0.00;;
41761;SDS011;27441;50.860;0.258;2023-02-28T14:25:54;0.00;;;0.00;;
41761;SDS011;27441;50.860;0.258;2023-02-28T14:31:13;0.00;;;0.00;;
41761;SDS011;27441;50.860;0.258;2023-02-28T14:36:37;0.10;;;0.10;;
41761;SDS011;27441;50.860;0.258;2023-02-28T14:39:14;0.10;;;0.10;;
41761;SDS011;27441;50.860;0.258;2023-02-28T14:41:42;0.00;;;0.00;;
41761;SDS011;27441;50.860;0.258;2023-02-28T14:44:19;0.00;;;0.00;;
41761;SDS011;27441;50.860;0.258;2023-02-28T14:46:46;0.08;;;0.08;;
41761;SDS011;27441;50.860;0.258;2023-02-28T14:49:18;0.00;;;0.00;;
41761;SDS011;27441;50.860;0.258;2023-02-28T14:51:44;0.00;;;0.00;;
41761;SDS011;27441;50.860;0.258;2023-02-28T14:54:13;0.00;;;0.00;;
41761;SDS011;27441;50.860;0.258;2023-02-28T14:56:40;0.10;;;0.10;;
41761;SDS011;27441;50.860;0.258;2023-02-28T14:59:23;0.10;;;0.10;;
41761;SDS011;27441;50.860;0.258;2023-02-28T15:01:49;0.00;;;0.00;;
41761;SDS011;27441;50.860;0.258;2023-02-28T15:04:22;0.00;;;0.00;;
41761;SDS011;27441;50.860;0.258;2023-02-28T15:09:40;0.00;;;0.00;;
41761;SDS011;27441;50.860;0.258;2023-02-28T15:12:06;0.00;;;0.00;;
41761;SDS011;27441;50.860;0.258;2023-02-28T15:14:33;0.00;;;0.00;;
41761;SDS011;27441;50.860;0.258;2023-02-28T15:17:06;0.10;;;0.10;;
41761;SDS011;27441;50.860;0.258;2023-02-28T15:19:35;0.10;;;0.10;;
41761;SDS011;27441;50.860;0.258;2023-02-28T15:22:04;0.00;;;0.00;;
41761;SDS011;27441;50.860;0.258;2023-02-28T15:24:38;0.00;;;0.00;;
41761;SDS011;27441;50.860;0.258;2023-02-28T15:27:06;0.10;;;0.10;;
41761;SDS011;27441;50.860;0.258;2023-02-28T15:29:35;0.10;;;0.10;;
41761;SDS011;27441;50.860;0.258;2023-02-28T15:32:07;0.03;;;0.03;;
41761;SDS011;27441;50.860;0.258;2023-02-28T15:34:40;0.10;;;0.10;;
41761;SDS011;27441;50.860;0.258;2023-02-28T15:39:51;0.10;;;0.10;;
41761;SDS011;27441;50.860;0.258;2023-02-28T15:42:18;0.10;;;0.10;;
41761;SDS011;27441;50.860;0.258;2023-02-28T15:44:45;0.10;;;0.10;;
41761;SDS011;27441;50.860;0.258;2023-02-28T15:47:21;0.10;;;0.10;;
41761;SDS011;27441;50.860;0.258;2023-02-28T15:49:49;0.10;;;0.10;;
41761;SDS011;27441;50.860;0.258;2023-02-28T15:52:17;0.10;;;0.10;;
41761;SDS011;27441;50.860;0.258;2023-02-28T15:54:44;0.20;;;0.20;;
41761;SDS011;27441;50.860;0.258;2023-02-28T15:57:17;0.10;;;0.10;;
41761;SDS011;27441;50.860;0.258;2023-02-28T15:59:49;0.10;;;0.10;;
41761;SDS011;27441;50.860;0.258;2023-02-28T16:02:17;0.10;;;0.10;;
41761;SDS011;27441;50.860;0.258;2023-02-28T16:04:55;0.10;;;0.10;;
41761;SDS011;27441;50.860;0.258;2023-02-28T16:07:22;0.10;;;0.10;;
41761;SDS011;27441;50.860;0.258;2023-02-28T16:09:49;0.10;;;0.10;;
41761;SDS011;27441;50.860;0.258;2023-02-28T16:12:15;0.20;;;0.20;;
41761;SDS011;27441;50.860;0.258;2023-02-28T16:14:41;0.10;;;0.10;;
41761;SDS011;27441;50.860;0.258;2023-02-28T16:17:20;0.20;;;0.20;;
41761;SDS011;27441;50.860;0.258;2023-02-28T16:19:47;0.20;;;0.20;;
41761;SDS011;27441;50.860;0.258;2023-02-28T16:22:13;0.10;;;0.10;;
41761;SDS011;27441;50.860;0.258;2023-02-28T16:24:39;0.10;;;0.10;;
41761;SDS011;27441;50.860;0.258;2023-02-28T16:27:06;0.20;;;0.20;;
41761;SDS011;27441;50.860;0.258;2023-02-28T16:29:34;0.10;;;0.10;;
41761;SDS011;27441;50.860;0.258;2023-02-28T16:32:01;0.17;;;0.17;;
41761;SDS011;27441;50.860;0.258;2023-02-28T16:34:29;0.20;;;0.20;;
41761;SDS011;27441;50.860;0.258;2023-02-28T16:36:56;0.10;;;0.10;;
41761;SDS011;27441;50.860;0.258;2023-02-28T16:39:22;0.10;;;0.10;;
41761;SDS011;27441;50.860;0.258;2023-02-28T16:41:48;0.20;;;0.20;;
41761;SDS011;27441;50.860;0.258;2023-02-28T16:44:21;0.10;;;0.10;;
41761;SDS011;27441;50.860;0.258;2023-02-28T16:46:49;0.20;;;0.20;;
41761;SDS011;27441;50.860;0.258;2023-02-28T16:49:15;0.20;;;0.20;;
41761;SDS011;27441;50.860;0.258;2023-02-28T16:51:41;0.10;;;0.10;;
41761;SDS011;27441;50.860;0.258;2023-02-28T16:54:07;0.10;;;0.10;;
41761;SDS011;27441;50.860;0.258;2023-02-28T16:56:33;0.20;;;0.20;;
41761;SDS011;27441;50.860;0.258;2023-02-28T16:59:00;0.10;;;0.10;;
41761;SDS011;27441;50.860;0.258;2023-02-28T17:01:27;0.20;;;0.20;;
41761;SDS011;27441;50.860;0.258;2023-02-28T17:03:54;0.20;;;0.20;;